sensor_id;sensor_type;location;lat;lon;timestamp;P1;durP1;ratioP1;P2;durP2;ratioP2
39566;SDS011;25241;41.978;14.664;2024-01-15T00:01:55;1.13;;;0.35;;
39566;SDS011;25241;41.978;14.664;2024-01-15T00:04:21;0.30;;;0.20;;
39566;SDS011;25241;41.978;14.664;2024-01-15T00:06:49;0.93;;;0.30;;
39566;SDS011;25241;41.978;14.664;2024-01-15T00:09:15;0.60;;;0.30;;
39566;SDS011;25241;41.978;14.664;2024-01-15T00:11:41;3.72;;;0.63;;
39566;SDS011;25241;41.978;14.664;2024-01-15T00:14:08;3.20;;;0.50;;
39566;SDS011;25241;41.978;14.664;2024-01-15T00:16:33;1.40;;;0.30;;
39566;SDS011;25241;41.978;14.664;2024-01-15T00:19:01;1.75;;;0.52;;
39566;SDS011;25241;41.978;14.664;2024-01-15T00:21:27;0.50;;;0.40;;
39566;SDS011;25241;41.978;14.664;2024-01-15T00:23:53;1.23;;;0.45;;
39566;SDS011;25241;41.978;14.664;2024-01-15T00:26:23;0.28;;;0.28;;
39566;SDS011;25241;41.978;14.664;2024-01-15T00:28:52;0.27;;;0.20;;
39566;SDS011;25241;41.978;14.664;2024-01-15T00:31:20;2.25;;;0.30;;
39566;SDS011;25241;41.978;14.664;2024-01-15T00:33:46;2.15;;;0.40;;
39566;SDS011;25241;41.978;14.664;2024-01-15T00:36:12;2.47;;;1.08;;
39566;SDS011;25241;41.978;14.664;2024-01-15T00:38:38;3.13;;;0.90;;
39566;SDS011;25241;41.978;14.664;2024-01-15T00:41:04;0.63;;;0.52;;
39566;SDS011;25241;41.978;14.664;2024-01-15T00:43:32;1.13;;;0.22;;
39566;SDS011;25241;41.978;14.664;2024-01-15T00:46:01;1.65;;;0.30;;
39566;SDS011;25241;41.978;14.664;2024-01-15T00:48:27;0.25;;;0.20;;
39566;SDS011;25241;41.978;14.664;2024-01-15T00:50:53;0.30;;;0.20;;
39566;SDS011;25241;41.978;14.664;2024-01-15T00:53:19;1.23;;;0.50;;
39566;SDS011;25241;41.978;14.664;2024-01-15T00:55:47;0.30;;;0.20;;
39566;SDS011;25241;41.978;14.664;2024-01-15T00:58:15;3.88;;;0.35;;
39566;SDS011;25241;41.978;14.664;2024-01-15T01:00:41;0.55;;;0.32;;
39566;SDS011;25241;41.978;14.664;2024-01-15T01:03:08;0.13;;;0.05;;
39566;SDS011;25241;41.978;14.664;2024-01-15T01:05:36;0.90;;;0.20;;
39566;SDS011;25241;41.978;14.664;2024-01-15T01:08:02;0.40;;;0.40;;
39566;SDS011;25241;41.978;14.664;2024-01-15T01:10:31;0.73;;;0.30;;
39566;SDS011;25241;41.978;14.664;2024-01-15T01:13:02;2.80;;;0.47;;
39566;SDS011;25241;41.978;14.664;2024-01-15T01:15:30;3.50;;;0.25;;
39566;SDS011;25241;41.978;14.664;2024-01-15T01:17:58;0.35;;;0.30;;
39566;SDS011;25241;41.978;14.664;2024-01-15T01:20:24;1.63;;;1.15;;
39566;SDS011;25241;41.978;14.664;2024-01-15T01:22:49;2.10;;;0.30;;
39566;SDS011;25241;41.978;14.664;2024-01-15T01:25:17;1.20;;;0.28;;
39566;SDS011;25241;41.978;14.664;2024-01-15T01:27:43;0.38;;;0.17;;
39566;SDS011;25241;41.978;14.664;2024-01-15T01:30:11;0.63;;;0.20;;
39566;SDS011;25241;41.978;14.664;2024-01-15T01:32:39;0.57;;;0.40;;
39566;SDS011;25241;41.978;14.664;2024-01-15T01:35:05;1.75;;;0.30;;
39566;SDS011;25241;41.978;14.664;2024-01-15T01:37:33;2.47;;;0.30;;
39566;SDS011;25241;41.978;14.664;2024-01-15T01:39:59;1.50;;;1.00;;
39566;SDS011;25241;41.978;14.664;2024-01-15T01:42:25;0.13;;;0.10;;
39566;SDS011;25241;41.978;14.664;2024-01-15T01:44:51;0.50;;;0.25;;
39566;SDS011;25241;41.978;14.664;2024-01-15T01:47:16;0.05;;;0.05;;
39566;SDS011;25241;41.978;14.664;2024-01-15T01:49:45;2.10;;;0.30;;
39566;SDS011;25241;41.978;14.664;2024-01-15T01:52:13;0.30;;;0.20;;
39566;SDS011;25241;41.978;14.664;2024-01-15T01:54:39;2.10;;;0.35;;
39566;SDS011;25241;41.978;14.664;2024-01-15T01:57:08;2.80;;;0.30;;
39566;SDS011;25241;41.978;14.664;2024-01-15T01:59:34;3.10;;;0.30;;
39566;SDS011;25241;41.978;14.664;2024-01-15T02:02:02;0.57;;;0.38;;
39566;SDS011;25241;41.978;14.664;2024-01-15T02:04:31;0.30;;;0.30;;
39566;SDS011;25241;41.978;14.664;2024-01-15T02:06:57;0.10;;;0.10;;
39566;SDS011;25241;41.978;14.664;2024-01-15T02:09:27;2.85;;;1.30;;
39566;SDS011;25241;41.978;14.664;2024-01-15T02:11:55;3.05;;;1.48;;
39566;SDS011;25241;41.978;14.664;2024-01-15T02:14:20;1.27;;;0.65;;
39566;SDS011;25241;41.978;14.664;2024-01-15T02:16:49;6.07;;;2.35;;
39566;SDS011;25241;41.978;14.664;2024-01-15T02:19:18;0.50;;;0.30;;
39566;SDS011;25241;41.978;14.664;2024-01-15T02:21:46;0.22;;;0.22;;
39566;SDS011;25241;41.978;14.664;2024-01-15T02:24:14;0.15;;;0.10;;
39566;SDS011;25241;41.978;14.664;2024-01-15T02:26:42;0.63;;;0.55;;
39566;SDS011;25241;41.978;14.664;2024-01-15T02:29:08;0.30;;;0.10;;
39566;SDS011;25241;41.978;14.664;2024-01-15T02:31:36;1.42;;;0.50;;
39566;SDS011;25241;41.978;14.664;2024-01-15T02:34:04;2.83;;;0.63;;
39566;SDS011;25241;41.978;14.664;2024-01-15T02:36:30;5.10;;;0.82;;
39566;SDS011;25241;41.978;14.664;2024-01-15T02:38:58;3.95;;;0.40;;
39566;SDS011;25241;41.978;14.664;2024-01-15T02:41:23;0.25;;;0.20;;
39566;SDS011;25241;41.978;14.664;2024-01-15T02:43:49;0.17;;;0.17;;
39566;SDS011;25241;41.978;14.664;2024-01-15T02:46:17;0.38;;;0.20;;
39566;SDS011;25241;41.978;14.664;2024-01-15T02:48:42;0.68;;;0.30;;
39566;SDS011;25241;41.978;14.664;2024-01-15T02:51:10;1.52;;;0.30;;
39566;SDS011;25241;41.978;14.664;2024-01-15T02:53:36;0.85;;;0.38;;
39566;SDS011;25241;41.978;14.664;2024-01-15T02:56:02;1.98;;;0.50;;
39566;SDS011;25241;41.978;14.664;2024-01-15T02:58:30;1.73;;;0.13;;
39566;SDS011;25241;41.978;14.664;2024-01-15T03:00:56;4.18;;;0.35;;
39566;SDS011;25241;41.978;14.664;2024-01-15T03:03:22;0.77;;;0.20;;
39566;SDS011;25241;41.978;14.664;2024-01-15T03:05:47;2.47;;;0.08;;
39566;SDS011;25241;41.978;14.664;2024-01-15T03:08:15;0.30;;;0.20;;
39566;SDS011;25241;41.978;14.664;2024-01-15T03:10:41;0.30;;;0.20;;
39566;SDS011;25241;41.978;14.664;2024-01-15T03:13:08;0.20;;;0.20;;
39566;SDS011;25241;41.978;14.664;2024-01-15T03:15:34;1.23;;;0.65;;
39566;SDS011;25241;41.978;14.664;2024-01-15T03:18:02;0.98;;;0.10;;
39566;SDS011;25241;41.978;14.664;2024-01-15T03:20:30;0.85;;;0.40;;
39566;SDS011;25241;41.978;14.664;2024-01-15T03:22:58;0.20;;;0.20;;
39566;SDS011;25241;41.978;14.664;2024-01-15T03:25:24;2.95;;;0.10;;
39566;SDS011;25241;41.978;14.664;2024-01-15T03:27:52;0.40;;;0.20;;
39566;SDS011;25241;41.978;14.664;2024-01-15T03:30:20;0.65;;;0.28;;
39566;SDS011;25241;41.978;14.664;2024-01-15T03:32:48;0.40;;;0.17;;
39566;SDS011;25241;41.978;14.664;2024-01-15T03:35:17;0.90;;;0.47;;
39566;SDS011;25241;41.978;14.664;2024-01-15T03:37:45;0.60;;;0.17;;
39566;SDS011;25241;41.978;14.664;2024-01-15T03:40:11;1.13;;;0.30;;
39566;SDS011;25241;41.978;14.664;2024-01-15T03:42:39;1.00;;;0.38;;
39566;SDS011;25241;41.978;14.664;2024-01-15T03:45:05;0.50;;;0.40;;
39566;SDS011;25241;41.978;14.664;2024-01-15T03:47:31;1.35;;;0.65;;
39566;SDS011;25241;41.978;14.664;2024-01-15T03:49:59;4.03;;;0.60;;
39566;SDS011;25241;41.978;14.664;2024-01-15T03:52:25;0.63;;;0.25;;
39566;SDS011;25241;41.978;14.664;2024-01-15T03:54:50;1.85;;;0.22;;
39566;SDS011;25241;41.978;14.664;2024-01-15T03:57:18;0.30;;;0.30;;
39566;SDS011;25241;41.978;14.664;2024-01-15T03:59:46;0.55;;;0.22;;
39566;SDS011;25241;41.978;14.664;2024-01-15T04:02:12;0.13;;;0.10;;
39566;SDS011;25241;41.978;14.664;2024-01-15T04:04:41;0.10;;;0.10;;
39566;SDS011;25241;41.978;14.664;2024-01-15T04:07:09;0.75;;;0.43;;
39566;SDS011;25241;41.978;14.664;2024-01-15T04:09:35;0.30;;;0.20;;
39566;SDS011;25241;41.978;14.664;2024-01-15T04:12:00;0.20;;;0.20;;
39566;SDS011;25241;41.978;14.664;2024-01-15T04:14:26;1.95;;;0.10;;
39566;SDS011;25241;41.978;14.664;2024-01-15T04:16:51;0.85;;;0.45;;
39566;SDS011;25241;41.978;14.664;2024-01-15T04:19:17;0.15;;;0.05;;
39566;SDS011;25241;41.978;14.664;2024-01-15T04:21:45;0.20;;;0.10;;
39566;SDS011;25241;41.978;14.664;2024-01-15T04:24:10;6.38;;;1.10;;
39566;SDS011;25241;41.978;14.664;2024-01-15T04:26:36;0.45;;;0.32;;
39566;SDS011;25241;41.978;14.664;2024-01-15T04:29:01;0.85;;;0.20;;
39566;SDS011;25241;41.978;14.664;2024-01-15T04:31:27;0.65;;;0.28;;
39566;SDS011;25241;41.978;14.664;2024-01-15T04:33:55;0.05;;;0.05;;
39566;SDS011;25241;41.978;14.664;2024-01-15T04:36:21;2.05;;;0.25;;
39566;SDS011;25241;41.978;14.664;2024-01-15T04:38:49;0.00;;;0.00;;
39566;SDS011;25241;41.978;14.664;2024-01-15T04:41:14;0.15;;;0.15;;
39566;SDS011;25241;41.978;14.664;2024-01-15T04:43:41;0.75;;;0.20;;
39566;SDS011;25241;41.978;14.664;2024-01-15T04:46:09;0.75;;;0.10;;
39566;SDS011;25241;41.978;14.664;2024-01-15T04:48:37;2.13;;;0.10;;
39566;SDS011;25241;41.978;14.664;2024-01-15T04:51:08;4.55;;;0.20;;
39566;SDS011;25241;41.978;14.664;2024-01-15T04:53:34;0.00;;;0.00;;
39566;SDS011;25241;41.978;14.664;2024-01-15T04:56:00;0.28;;;0.22;;
39566;SDS011;25241;41.978;14.664;2024-01-15T04:58:26;1.27;;;0.20;;
39566;SDS011;25241;41.978;14.664;2024-01-15T05:00:52;2.00;;;0.10;;
39566;SDS011;25241;41.978;14.664;2024-01-15T05:03:18;0.10;;;0.10;;
39566;SDS011;25241;41.978;14.664;2024-01-15T05:05:46;2.08;;;0.10;;
39566;SDS011;25241;41.978;14.664;2024-01-15T05:08:12;0.00;;;0.00;;
39566;SDS011;25241;41.978;14.664;2024-01-15T05:10:37;0.50;;;0.20;;
39566;SDS011;25241;41.978;14.664;2024-01-15T05:13:03;0.80;;;0.10;;
39566;SDS011;25241;41.978;14.664;2024-01-15T05:15:31;0.30;;;0.10;;
39566;SDS011;25241;41.978;14.664;2024-01-15T05:17:59;0.00;;;0.00;;
39566;SDS011;25241;41.978;14.664;2024-01-15T05:20:27;0.17;;;0.10;;
39566;SDS011;25241;41.978;14.664;2024-01-15T05:22:55;3.30;;;0.35;;
39566;SDS011;25241;41.978;14.664;2024-01-15T05:25:23;0.43;;;0.13;;
39566;SDS011;25241;41.978;14.664;2024-01-15T05:27:52;0.85;;;0.30;;
39566;SDS011;25241;41.978;14.664;2024-01-15T05:30:20;1.55;;;0.20;;
39566;SDS011;25241;41.978;14.664;2024-01-15T05:32:45;0.10;;;0.10;;
39566;SDS011;25241;41.978;14.664;2024-01-15T05:35:13;0.20;;;0.10;;
39566;SDS011;25241;41.978;14.664;2024-01-15T05:37:43;0.20;;;0.10;;
39566;SDS011;25241;41.978;14.664;2024-01-15T05:40:13;1.55;;;0.30;;
39566;SDS011;25241;41.978;14.664;2024-01-15T05:42:39;0.73;;;0.00;;
39566;SDS011;25241;41.978;14.664;2024-01-15T05:45:07;0.52;;;0.10;;
39566;SDS011;25241;41.978;14.664;2024-01-15T05:47:35;0.57;;;0.20;;
39566;SDS011;25241;41.978;14.664;2024-01-15T05:50:04;0.90;;;0.28;;
39566;SDS011;25241;41.978;14.664;2024-01-15T05:52:29;1.25;;;0.80;;
39566;SDS011;25241;41.978;14.664;2024-01-15T05:54:55;0.80;;;0.50;;
39566;SDS011;25241;41.978;14.664;2024-01-15T05:57:24;0.98;;;0.25;;
39566;SDS011;25241;41.978;14.664;2024-01-15T05:59:49;3.67;;;0.77;;
39566;SDS011;25241;41.978;14.664;2024-01-15T06:02:15;1.83;;;0.43;;
39566;SDS011;25241;41.978;14.664;2024-01-15T06:04:40;0.57;;;0.30;;
39566;SDS011;25241;41.978;14.664;2024-01-15T06:07:08;1.75;;;0.32;;
39566;SDS011;25241;41.978;14.664;2024-01-15T06:09:34;0.82;;;0.25;;
39566;SDS011;25241;41.978;14.664;2024-01-15T06:12:02;1.85;;;1.10;;
39566;SDS011;25241;41.978;14.664;2024-01-15T06:14:28;0.52;;;0.43;;
39566;SDS011;25241;41.978;14.664;2024-01-15T06:16:53;1.30;;;0.47;;
39566;SDS011;25241;41.978;14.664;2024-01-15T06:19:21;0.10;;;0.10;;
39566;SDS011;25241;41.978;14.664;2024-01-15T06:21:47;1.50;;;0.28;;
39566;SDS011;25241;41.978;14.664;2024-01-15T06:24:15;0.32;;;0.20;;
39566;SDS011;25241;41.978;14.664;2024-01-15T06:26:43;2.55;;;1.00;;
39566;SDS011;25241;41.978;14.664;2024-01-15T06:29:08;4.65;;;2.67;;
39566;SDS011;25241;41.978;14.664;2024-01-15T06:31:34;2.45;;;1.52;;
39566;SDS011;25241;41.978;14.664;2024-01-15T06:33:59;1.35;;;0.45;;
39566;SDS011;25241;41.978;14.664;2024-01-15T06:36:25;3.25;;;0.80;;
39566;SDS011;25241;41.978;14.664;2024-01-15T06:38:50;4.07;;;1.35;;
39566;SDS011;25241;41.978;14.664;2024-01-15T06:41:16;1.05;;;0.60;;
39566;SDS011;25241;41.978;14.664;2024-01-15T06:43:44;15.27;;;4.22;;
39566;SDS011;25241;41.978;14.664;2024-01-15T06:46:09;24.00;;;7.75;;
39566;SDS011;25241;41.978;14.664;2024-01-15T06:48:35;10.50;;;5.43;;
39566;SDS011;25241;41.978;14.664;2024-01-15T06:51:03;7.25;;;3.55;;
39566;SDS011;25241;41.978;14.664;2024-01-15T06:53:31;4.07;;;1.73;;
39566;SDS011;25241;41.978;14.664;2024-01-15T06:55:57;4.82;;;1.60;;
39566;SDS011;25241;41.978;14.664;2024-01-15T06:58:25;2.53;;;1.67;;
39566;SDS011;25241;41.978;14.664;2024-01-15T07:00:51;4.22;;;1.75;;
39566;SDS011;25241;41.978;14.664;2024-01-15T07:03:16;3.88;;;1.80;;
39566;SDS011;25241;41.978;14.664;2024-01-15T07:05:42;5.82;;;1.25;;
39566;SDS011;25241;41.978;14.664;2024-01-15T07:08:08;0.75;;;0.50;;
39566;SDS011;25241;41.978;14.664;2024-01-15T07:10:36;4.47;;;1.58;;
39566;SDS011;25241;41.978;14.664;2024-01-15T07:13:02;4.90;;;1.65;;
39566;SDS011;25241;41.978;14.664;2024-01-15T07:15:27;0.90;;;0.70;;
39566;SDS011;25241;41.978;14.664;2024-01-15T07:17:55;3.03;;;1.17;;
39566;SDS011;25241;41.978;14.664;2024-01-15T07:20:23;2.40;;;0.90;;
39566;SDS011;25241;41.978;14.664;2024-01-15T07:22:49;6.43;;;2.72;;
39566;SDS011;25241;41.978;14.664;2024-01-15T07:25:17;6.57;;;1.75;;
39566;SDS011;25241;41.978;14.664;2024-01-15T07:27:42;2.55;;;0.95;;
39566;SDS011;25241;41.978;14.664;2024-01-15T07:30:12;4.28;;;1.05;;
39566;SDS011;25241;41.978;14.664;2024-01-15T07:32:40;5.85;;;1.30;;
39566;SDS011;25241;41.978;14.664;2024-01-15T07:35:06;5.78;;;0.60;;
39566;SDS011;25241;41.978;14.664;2024-01-15T07:37:34;1.90;;;0.80;;
39566;SDS011;25241;41.978;14.664;2024-01-15T07:40:02;4.00;;;1.50;;
39566;SDS011;25241;41.978;14.664;2024-01-15T07:42:32;4.88;;;1.83;;
39566;SDS011;25241;41.978;14.664;2024-01-15T07:45:00;0.88;;;0.60;;
39566;SDS011;25241;41.978;14.664;2024-01-15T07:47:28;1.60;;;0.40;;
39566;SDS011;25241;41.978;14.664;2024-01-15T07:49:56;0.75;;;0.52;;
39566;SDS011;25241;41.978;14.664;2024-01-15T07:52:22;5.25;;;1.40;;
39566;SDS011;25241;41.978;14.664;2024-01-15T07:54:50;7.55;;;1.35;;
39566;SDS011;25241;41.978;14.664;2024-01-15T07:57:19;5.55;;;1.55;;
39566;SDS011;25241;41.978;14.664;2024-01-15T07:59:44;5.28;;;1.63;;
39566;SDS011;25241;41.978;14.664;2024-01-15T08:02:10;5.53;;;0.88;;
39566;SDS011;25241;41.978;14.664;2024-01-15T08:04:39;1.70;;;0.85;;
39566;SDS011;25241;41.978;14.664;2024-01-15T08:07:07;1.67;;;0.93;;
39566;SDS011;25241;41.978;14.664;2024-01-15T08:09:35;2.22;;;0.65;;
39566;SDS011;25241;41.978;14.664;2024-01-15T08:12:03;5.07;;;1.75;;
39566;SDS011;25241;41.978;14.664;2024-01-15T08:14:33;1.33;;;0.82;;
39566;SDS011;25241;41.978;14.664;2024-01-15T08:16:59;4.75;;;0.88;;
39566;SDS011;25241;41.978;14.664;2024-01-15T08:19:27;11.38;;;3.00;;
39566;SDS011;25241;41.978;14.664;2024-01-15T08:21:52;5.40;;;2.58;;
39566;SDS011;25241;41.978;14.664;2024-01-15T08:24:18;12.13;;;2.75;;
39566;SDS011;25241;41.978;14.664;2024-01-15T08:26:46;5.10;;;2.40;;
39566;SDS011;25241;41.978;14.664;2024-01-15T08:29:14;4.05;;;1.77;;
39566;SDS011;25241;41.978;14.664;2024-01-15T08:31:41;6.97;;;1.95;;
39566;SDS011;25241;41.978;14.664;2024-01-15T08:34:09;6.35;;;1.83;;
39566;SDS011;25241;41.978;14.664;2024-01-15T08:36:35;9.18;;;2.70;;
39566;SDS011;25241;41.978;14.664;2024-01-15T08:39:03;5.47;;;1.67;;
39566;SDS011;25241;41.978;14.664;2024-01-15T08:41:31;5.30;;;1.80;;
39566;SDS011;25241;41.978;14.664;2024-01-15T08:44:00;6.38;;;2.88;;
39566;SDS011;25241;41.978;14.664;2024-01-15T08:46:26;4.00;;;1.15;;
39566;SDS011;25241;41.978;14.664;2024-01-15T08:48:51;3.78;;;1.63;;
39566;SDS011;25241;41.978;14.664;2024-01-15T08:51:17;11.60;;;2.83;;
39566;SDS011;25241;41.978;14.664;2024-01-15T08:53:43;3.97;;;2.17;;
39566;SDS011;25241;41.978;14.664;2024-01-15T08:56:12;5.03;;;2.45;;
39566;SDS011;25241;41.978;14.664;2024-01-15T08:58:37;29.75;;;9.55;;
39566;SDS011;25241;41.978;14.664;2024-01-15T09:01:03;10.35;;;4.07;;
39566;SDS011;25241;41.978;14.664;2024-01-15T09:03:29;8.15;;;2.90;;
39566;SDS011;25241;41.978;14.664;2024-01-15T09:05:55;3.17;;;1.55;;
39566;SDS011;25241;41.978;14.664;2024-01-15T09:08:21;5.70;;;1.95;;
39566;SDS011;25241;41.978;14.664;2024-01-15T09:10:46;2.88;;;1.58;;
39566;SDS011;25241;41.978;14.664;2024-01-15T09:13:12;2.72;;;1.20;;
39566;SDS011;25241;41.978;14.664;2024-01-15T09:15:40;5.90;;;1.45;;
39566;SDS011;25241;41.978;14.664;2024-01-15T09:18:08;4.38;;;1.80;;
39566;SDS011;25241;41.978;14.664;2024-01-15T09:20:34;10.13;;;2.63;;
39566;SDS011;25241;41.978;14.664;2024-01-15T09:23:02;7.20;;;2.08;;
39566;SDS011;25241;41.978;14.664;2024-01-15T09:25:30;11.25;;;2.88;;
39566;SDS011;25241;41.978;14.664;2024-01-15T09:27:56;9.15;;;2.75;;
39566;SDS011;25241;41.978;14.664;2024-01-15T09:30:22;12.00;;;2.70;;
39566;SDS011;25241;41.978;14.664;2024-01-15T09:32:50;9.90;;;3.47;;
39566;SDS011;25241;41.978;14.664;2024-01-15T09:35:18;7.75;;;2.30;;
39566;SDS011;25241;41.978;14.664;2024-01-15T09:37:46;4.78;;;1.48;;
39566;SDS011;25241;41.978;14.664;2024-01-15T09:40:15;3.25;;;1.10;;
39566;SDS011;25241;41.978;14.664;2024-01-15T09:42:41;4.00;;;1.00;;
39566;SDS011;25241;41.978;14.664;2024-01-15T09:45:07;5.72;;;2.50;;
39566;SDS011;25241;41.978;14.664;2024-01-15T09:47:34;9.32;;;1.90;;
39566;SDS011;25241;41.978;14.664;2024-01-15T09:50:01;6.70;;;2.97;;
39566;SDS011;25241;41.978;14.664;2024-01-15T09:52:28;5.78;;;2.38;;
39566;SDS011;25241;41.978;14.664;2024-01-15T09:54:56;18.52;;;5.65;;
39566;SDS011;25241;41.978;14.664;2024-01-15T09:57:24;51.88;;;16.80;;
39566;SDS011;25241;41.978;14.664;2024-01-15T09:59:50;43.30;;;13.52;;
39566;SDS011;25241;41.978;14.664;2024-01-15T10:02:19;26.15;;;9.45;;
39566;SDS011;25241;41.978;14.664;2024-01-15T10:04:45;21.38;;;8.68;;
39566;SDS011;25241;41.978;14.664;2024-01-15T10:07:15;9.45;;;4.20;;
39566;SDS011;25241;41.978;14.664;2024-01-15T10:09:47;13.25;;;5.00;;
39566;SDS011;25241;41.978;14.664;2024-01-15T10:12:15;4.07;;;2.83;;
39566;SDS011;25241;41.978;14.664;2024-01-15T10:14:41;6.32;;;1.65;;
39566;SDS011;25241;41.978;14.664;2024-01-15T10:17:14;16.52;;;3.53;;
39566;SDS011;25241;41.978;14.664;2024-01-15T10:19:40;20.92;;;4.53;;
39566;SDS011;25241;41.978;14.664;2024-01-15T10:22:09;9.18;;;4.07;;
39566;SDS011;25241;41.978;14.664;2024-01-15T10:24:40;13.80;;;4.18;;
39566;SDS011;25241;41.978;14.664;2024-01-15T10:27:09;6.40;;;2.40;;
39566;SDS011;25241;41.978;14.664;2024-01-15T10:29:35;3.55;;;1.67;;
39566;SDS011;25241;41.978;14.664;2024-01-15T10:32:10;6.30;;;2.53;;
39566;SDS011;25241;41.978;14.664;2024-01-15T10:34:41;5.68;;;2.85;;
39566;SDS011;25241;41.978;14.664;2024-01-15T10:37:10;5.38;;;2.10;;
39566;SDS011;25241;41.978;14.664;2024-01-15T10:39:36;6.03;;;2.45;;
39566;SDS011;25241;41.978;14.664;2024-01-15T10:42:02;3.03;;;1.13;;
39566;SDS011;25241;41.978;14.664;2024-01-15T10:44:30;2.33;;;1.27;;
39566;SDS011;25241;41.978;14.664;2024-01-15T10:46:58;3.33;;;1.58;;
39566;SDS011;25241;41.978;14.664;2024-01-15T10:49:24;5.40;;;2.15;;
39566;SDS011;25241;41.978;14.664;2024-01-15T10:51:54;6.57;;;2.80;;
39566;SDS011;25241;41.978;14.664;2024-01-15T10:54:20;4.93;;;2.30;;
39566;SDS011;25241;41.978;14.664;2024-01-15T10:56:49;3.97;;;2.30;;
39566;SDS011;25241;41.978;14.664;2024-01-15T10:59:18;7.32;;;3.20;;
39566;SDS011;25241;41.978;14.664;2024-01-15T11:01:45;7.55;;;3.38;;
39566;SDS011;25241;41.978;14.664;2024-01-15T11:04:11;14.25;;;4.63;;
39566;SDS011;25241;41.978;14.664;2024-01-15T11:06:58;12.77;;;3.97;;
39566;SDS011;25241;41.978;14.664;2024-01-15T11:09:26;9.95;;;3.15;;
39566;SDS011;25241;41.978;14.664;2024-01-15T11:12:08;4.05;;;2.42;;
39566;SDS011;25241;41.978;14.664;2024-01-15T11:17:10;4.60;;;2.17;;
39566;SDS011;25241;41.978;14.664;2024-01-15T11:19:42;4.63;;;1.85;;
39566;SDS011;25241;41.978;14.664;2024-01-15T11:25:05;11.88;;;2.83;;
39566;SDS011;25241;41.978;14.664;2024-01-15T11:27:42;7.43;;;2.92;;
39566;SDS011;25241;41.978;14.664;2024-01-15T11:30:18;7.33;;;2.70;;
39566;SDS011;25241;41.978;14.664;2024-01-15T11:32:45;4.32;;;1.38;;
39566;SDS011;25241;41.978;14.664;2024-01-15T11:35:12;3.10;;;1.00;;
39566;SDS011;25241;41.978;14.664;2024-01-15T11:43:06;1.73;;;0.75;;
39566;SDS011;25241;41.978;14.664;2024-01-15T11:45:32;3.13;;;1.73;;
39566;SDS011;25241;41.978;14.664;2024-01-15T11:50:45;2.83;;;0.80;;
39566;SDS011;25241;41.978;14.664;2024-01-15T11:55:51;1.95;;;0.95;;
39566;SDS011;25241;41.978;14.664;2024-01-15T11:58:17;4.45;;;1.90;;
39566;SDS011;25241;41.978;14.664;2024-01-15T12:00:43;11.00;;;1.80;;
39566;SDS011;25241;41.978;14.664;2024-01-15T12:03:10;1.23;;;0.60;;
39566;SDS011;25241;41.978;14.664;2024-01-15T12:05:39;3.63;;;0.75;;
39566;SDS011;25241;41.978;14.664;2024-01-15T12:10:37;2.53;;;0.93;;
39566;SDS011;25241;41.978;14.664;2024-01-15T12:15:37;3.42;;;0.95;;
39566;SDS011;25241;41.978;14.664;2024-01-15T12:18:03;2.50;;;0.43;;
39566;SDS011;25241;41.978;14.664;2024-01-15T12:20:29;1.50;;;0.65;;
39566;SDS011;25241;41.978;14.664;2024-01-15T12:22:56;2.85;;;0.93;;
39566;SDS011;25241;41.978;14.664;2024-01-15T12:25:25;4.68;;;0.73;;
39566;SDS011;25241;41.978;14.664;2024-01-15T12:30:20;10.38;;;0.88;;
39566;SDS011;25241;41.978;14.664;2024-01-15T12:32:45;2.78;;;1.42;;
39566;SDS011;25241;41.978;14.664;2024-01-15T12:35:14;6.40;;;1.75;;
39566;SDS011;25241;41.978;14.664;2024-01-15T12:37:41;15.73;;;3.85;;
39566;SDS011;25241;41.978;14.664;2024-01-15T12:40:09;14.55;;;2.38;;
39566;SDS011;25241;41.978;14.664;2024-01-15T12:42:38;3.45;;;1.23;;
39566;SDS011;25241;41.978;14.664;2024-01-15T12:45:05;11.23;;;3.53;;
39566;SDS011;25241;41.978;14.664;2024-01-15T12:47:32;7.95;;;2.08;;
39566;SDS011;25241;41.978;14.664;2024-01-15T12:50:00;7.22;;;0.88;;
39566;SDS011;25241;41.978;14.664;2024-01-15T12:52:29;3.97;;;0.77;;
39566;SDS011;25241;41.978;14.664;2024-01-15T12:54:57;5.07;;;1.93;;
39566;SDS011;25241;41.978;14.664;2024-01-15T12:57:22;4.30;;;1.35;;
39566;SDS011;25241;41.978;14.664;2024-01-15T12:59:50;3.03;;;1.13;;
39566;SDS011;25241;41.978;14.664;2024-01-15T13:02:18;3.58;;;1.67;;
39566;SDS011;25241;41.978;14.664;2024-01-15T13:04:46;9.75;;;2.85;;
39566;SDS011;25241;41.978;14.664;2024-01-15T13:07:12;2.60;;;1.40;;
39566;SDS011;25241;41.978;14.664;2024-01-15T13:09:38;5.40;;;1.80;;
39566;SDS011;25241;41.978;14.664;2024-01-15T13:12:06;1.33;;;0.75;;
39566;SDS011;25241;41.978;14.664;2024-01-15T13:14:31;7.85;;;1.42;;
39566;SDS011;25241;41.978;14.664;2024-01-15T13:17:00;4.43;;;1.20;;
39566;SDS011;25241;41.978;14.664;2024-01-15T13:19:26;4.95;;;1.05;;
39566;SDS011;25241;41.978;14.664;2024-01-15T13:21:54;3.22;;;1.17;;
39566;SDS011;25241;41.978;14.664;2024-01-15T13:24:24;3.22;;;1.30;;
39566;SDS011;25241;41.978;14.664;2024-01-15T13:26:51;4.60;;;1.05;;
39566;SDS011;25241;41.978;14.664;2024-01-15T13:29:20;2.72;;;1.33;;
39566;SDS011;25241;41.978;14.664;2024-01-15T13:31:45;4.70;;;1.92;;
39566;SDS011;25241;41.978;14.664;2024-01-15T13:34:11;2.20;;;0.77;;
39566;SDS011;25241;41.978;14.664;2024-01-15T13:36:37;1.75;;;0.55;;
39566;SDS011;25241;41.978;14.664;2024-01-15T13:39:06;2.85;;;0.93;;
39566;SDS011;25241;41.978;14.664;2024-01-15T13:44:02;7.47;;;2.38;;
39566;SDS011;25241;41.978;14.664;2024-01-15T13:46:28;11.82;;;2.50;;
39566;SDS011;25241;41.978;14.664;2024-01-15T13:48:56;11.07;;;2.50;;
39566;SDS011;25241;41.978;14.664;2024-01-15T13:51:22;6.13;;;2.08;;
39566;SDS011;25241;41.978;14.664;2024-01-15T13:53:50;9.05;;;1.63;;
39566;SDS011;25241;41.978;14.664;2024-01-15T13:56:19;8.10;;;3.30;;
39566;SDS011;25241;41.978;14.664;2024-01-15T13:58:44;8.70;;;3.15;;
39566;SDS011;25241;41.978;14.664;2024-01-15T14:01:10;11.48;;;3.67;;
39566;SDS011;25241;41.978;14.664;2024-01-15T14:03:36;2.10;;;1.52;;
39566;SDS011;25241;41.978;14.664;2024-01-15T14:06:01;7.70;;;1.50;;
39566;SDS011;25241;41.978;14.664;2024-01-15T14:08:34;3.45;;;1.63;;
39566;SDS011;25241;41.978;14.664;2024-01-15T14:11:02;2.30;;;1.25;;
39566;SDS011;25241;41.978;14.664;2024-01-15T14:13:28;4.25;;;1.33;;
39566;SDS011;25241;41.978;14.664;2024-01-15T14:15:56;3.40;;;1.60;;
39566;SDS011;25241;41.978;14.664;2024-01-15T14:18:22;3.30;;;1.52;;
39566;SDS011;25241;41.978;14.664;2024-01-15T14:20:47;2.65;;;1.35;;
39566;SDS011;25241;41.978;14.664;2024-01-15T14:23:13;14.93;;;4.68;;
39566;SDS011;25241;41.978;14.664;2024-01-15T14:25:39;17.55;;;6.32;;
39566;SDS011;25241;41.978;14.664;2024-01-15T14:28:07;15.43;;;5.90;;
39566;SDS011;25241;41.978;14.664;2024-01-15T14:30:35;8.48;;;2.88;;
39566;SDS011;25241;41.978;14.664;2024-01-15T14:33:00;9.10;;;3.95;;
39566;SDS011;25241;41.978;14.664;2024-01-15T14:35:26;9.15;;;3.05;;
39566;SDS011;25241;41.978;14.664;2024-01-15T14:37:51;5.97;;;2.55;;
39566;SDS011;25241;41.978;14.664;2024-01-15T14:40:19;14.32;;;3.90;;
39566;SDS011;25241;41.978;14.664;2024-01-15T14:42:47;38.47;;;10.68;;
39566;SDS011;25241;41.978;14.664;2024-01-15T14:45:15;15.68;;;5.65;;
39566;SDS011;25241;41.978;14.664;2024-01-15T14:47:43;9.55;;;4.13;;
39566;SDS011;25241;41.978;14.664;2024-01-15T14:50:09;18.63;;;5.38;;
39566;SDS011;25241;41.978;14.664;2024-01-15T14:52:38;3.53;;;1.70;;
39566;SDS011;25241;41.978;14.664;2024-01-15T14:55:05;10.45;;;2.63;;
39566;SDS011;25241;41.978;14.664;2024-01-15T14:57:34;9.65;;;5.07;;
39566;SDS011;25241;41.978;14.664;2024-01-15T15:00:02;4.50;;;1.77;;